createdAt,value
2023-02-08T00:01:48.223Z,93308.78
2023-02-08T00:04:20.726Z,93313.69
2023-02-08T00:06:53.439Z,93314.78
2023-02-08T00:09:26.781Z,93311.91
2023-02-08T00:11:59.274Z,93322.66
2023-02-08T00:14:31.831Z,93319.38
2023-02-08T00:17:04.441Z,93329.38
2023-02-08T00:19:36.905Z,93323.47
2023-02-08T00:22:09.325Z,93329.38
2023-02-08T00:24:42.421Z,93325.09
2023-02-08T00:27:15.161Z,93330.97
2023-02-08T00:29:48.275Z,93331.91
2023-02-08T00:32:20.695Z,93331.59
2023-02-08T00:34:53.333Z,93338.44
2023-02-08T00:37:25.830Z,93343.19
2023-02-08T00:40:01.840Z,93345.22
2023-02-08T00:42:34.318Z,93349.03
2023-02-08T00:45:07.431Z,93357.16
2023-02-08T00:47:40.039Z,93353.50
2023-02-08T00:50:12.878Z,93358.59
2023-02-08T00:52:45.307Z,93356.03
2023-02-08T00:55:18.483Z,93364.78
2023-02-08T00:57:51.001Z,93360.63
2023-02-08T01:00:23.531Z,93368.28
2023-02-08T01:02:55.950Z,93369.38
2023-02-08T01:05:29.245Z,93361.75
2023-02-08T01:08:02.094Z,93365.41
2023-02-08T01:10:35.968Z,93367.13
2023-02-08T01:13:09.194Z,93368.72
2023-02-08T01:15:41.792Z,93356.47
2023-02-08T01:18:14.253Z,93363.00
2023-02-08T01:20:47.316Z,93371.06
2023-02-08T01:23:19.783Z,93370.28
2023-02-08T01:25:53.195Z,93362.88
2023-02-08T01:28:25.760Z,93354.09
2023-02-08T01:30:58.312Z,93361.53
2023-02-08T01:33:30.963Z,93354.38
2023-02-08T01:36:06.480Z,93351.19
2023-02-08T01:38:39.904Z,93362.16
2023-02-08T01:41:16.529Z,93348.19
2023-02-08T01:44:29.041Z,93351.09
2023-02-08T01:47:02.355Z,93355.22
2023-02-08T01:49:36.582Z,93359.50
2023-02-08T01:52:13.675Z,93363.88
2023-02-08T01:54:50.242Z,93355.94
2023-02-08T01:57:26.349Z,93353.25
2023-02-08T02:00:02.548Z,93341.69
2023-02-08T02:02:48.450Z,93356.56
2023-02-08T02:05:22.328Z,93363.56
2023-02-08T02:07:57.197Z,93367.69
2023-02-08T02:10:32.006Z,93370.59
2023-02-08T02:13:08.935Z,93373.56
2023-02-08T02:15:43.128Z,93371.66
2023-02-08T02:18:23.177Z,93375.31
2023-02-08T02:21:15.864Z,93369.16
2023-02-08T02:24:10.086Z,93324.94
2023-02-08T02:27:19.334Z,93374.28
2023-02-08T02:30:15.547Z,93379.50
2023-02-08T02:33:03.616Z,93386.34
2023-02-08T02:35:42.802Z,93388.56
2023-02-08T02:38:30.208Z,93389.66
2023-02-08T02:41:13.676Z,93386.16
2023-02-08T02:43:51.262Z,93388.53
2023-02-08T02:46:27.561Z,93389.06
2023-02-08T02:49:05.352Z,93393.78
2023-02-08T02:51:43.273Z,93394.22
2023-02-08T02:54:20.587Z,93396.16
2023-02-08T02:56:58.707Z,93396.94
2023-02-08T02:59:33.490Z,93383.00
2023-02-08T03:02:06.320Z,93411.16
2023-02-08T03:04:50.524Z,93410.50
2023-02-08T03:07:48.949Z,93407.16
2023-02-08T03:10:49.907Z,93409.56
2023-02-08T03:13:35.613Z,93413.34
2023-02-08T03:16:17.945Z,93411.94
2023-02-08T03:19:02.916Z,93413.53
2023-02-08T03:21:41.347Z,93411.75
2023-02-08T03:24:27.970Z,93415.25
2023-02-08T03:27:06.494Z,93414.16
2023-02-08T03:29:45.535Z,93409.56
2023-02-08T03:32:24.082Z,93417.34
2023-02-08T03:35:04.063Z,93408.75
2023-02-08T03:37:42.117Z,93409.06
2023-02-08T03:40:20.945Z,93404.78
2023-02-08T03:42:56.303Z,93399.84
2023-02-08T03:45:32.004Z,93404.50
2023-02-08T03:48:09.815Z,93396.84
2023-02-08T03:50:47.073Z,93392.56
2023-02-08T03:53:23.191Z,93399.06
2023-02-08T03:55:59.844Z,93394.94
2023-02-08T03:58:39.732Z,93395.09
2023-02-08T04:01:18.291Z,93394.31
2023-02-08T04:03:53.659Z,93395.09
2023-02-08T04:06:26.916Z,93405.91
2023-02-08T04:09:00.044Z,93400.03
2023-02-08T04:11:32.825Z,93393.69
2023-02-08T04:14:05.382Z,93393.84
2023-02-08T04:16:37.725Z,93396.53
2023-02-08T04:19:10.167Z,93398.09
2023-02-08T04:21:42.493Z,93399.69
2023-02-08T04:24:15.769Z,93405.06
2023-02-08T04:26:48.313Z,93405.84
2023-02-08T04:29:20.769Z,93408.47
2023-02-08T04:31:53.243Z,93416.75
2023-02-08T04:34:26.718Z,93411.00
2023-02-08T04:36:59.021Z,93415.81
2023-02-08T04:39:32.322Z,93410.34
2023-02-08T04:42:05.300Z,93423.03
2023-02-08T04:44:37.711Z,93415.84
2023-02-08T04:47:10.221Z,93422.97
2023-02-08T04:49:42.808Z,93420.28
2023-02-08T04:52:15.218Z,93425.69
2023-02-08T04:54:48.406Z,93418.56
2023-02-08T04:57:20.765Z,93422.84
2023-02-08T04:59:53.381Z,93425.66
2023-02-08T05:02:25.755Z,93433.63
2023-02-08T05:04:58.261Z,93441.25
2023-02-08T05:07:30.736Z,93449.19
2023-02-08T05:10:04.244Z,93452.91
2023-02-08T05:12:36.596Z,93452.97
2023-02-08T05:15:09.710Z,93458.56
2023-02-08T05:17:42.357Z,93463.84
2023-02-08T05:20:14.928Z,93470.16
2023-02-08T05:22:47.485Z,93470.47
2023-02-08T05:25:20.520Z,93466.75
2023-02-08T05:27:53.327Z,93460.44
2023-02-08T05:30:25.785Z,93468.47
2023-02-08T05:32:58.226Z,93475.22
2023-02-08T05:35:30.673Z,93478.44
2023-02-08T05:38:03.497Z,93481.50
2023-02-08T05:40:36.676Z,93491.03
2023-02-08T05:43:09.395Z,93494.22
2023-02-08T05:45:41.808Z,93489.34
2023-02-08T05:48:14.115Z,93491.94
2023-02-08T05:50:46.581Z,93497.84
2023-02-08T05:53:20.060Z,93497.75
2023-02-08T05:55:53.440Z,93496.44
2023-02-08T05:58:26.234Z,93496.94
2023-02-08T06:00:58.691Z,93498.38
2023-02-08T06:03:31.065Z,93500.00
2023-02-08T06:06:05.012Z,93487.66
2023-02-08T06:08:38.059Z,93505.22
2023-02-08T06:11:11.171Z,93504.25
2023-02-08T06:13:43.607Z,93505.09
2023-02-08T06:16:19.565Z,93507.19
2023-02-08T06:18:52.404Z,93514.75
2023-02-08T06:21:24.834Z,93505.09
2023-02-08T06:23:57.244Z,93512.13
2023-02-08T06:26:30.301Z,93503.50
2023-02-08T06:29:03.072Z,93510.16
2023-02-08T06:31:36.020Z,93508.91
2023-02-08T06:34:08.640Z,93516.06
2023-02-08T06:36:41.032Z,93513.63
2023-02-08T06:39:13.426Z,93512.88
2023-02-08T06:41:46.587Z,93511.13
2023-02-08T06:44:19.228Z,93511.25
2023-02-08T06:46:52.277Z,93521.41
2023-02-08T06:49:24.689Z,93518.03
2023-02-08T06:51:57.396Z,93522.75
2023-02-08T06:54:29.828Z,93528.44
2023-02-08T06:57:03.262Z,93524.03
2023-02-08T06:59:35.658Z,93532.44
2023-02-08T07:02:12.570Z,93523.91
2023-02-08T07:04:45.400Z,93526.44
2023-02-08T07:07:18.806Z,93531.44
2023-02-08T07:09:51.592Z,93526.22
2023-02-08T07:12:24.721Z,93524.22
2023-02-08T07:14:57.115Z,93525.28
2023-02-08T07:17:29.655Z,93530.25
2023-02-08T07:20:02.153Z,93536.63
2023-02-08T07:22:34.521Z,93529.50
2023-02-08T07:25:08.924Z,93518.59
2023-02-08T07:27:41.947Z,93537.97
2023-02-08T07:30:14.586Z,93549.88
2023-02-08T07:32:46.961Z,93548.44
2023-02-08T07:35:19.463Z,93555.78
2023-02-08T07:37:51.824Z,93555.00
2023-02-08T07:40:24.296Z,93556.16
2023-02-08T07:42:57.457Z,93563.88
2023-02-08T07:45:44.263Z,93560.16
2023-02-08T07:48:16.690Z,93559.22
2023-02-08T07:50:49.376Z,93541.25
2023-02-08T07:53:21.764Z,93559.72
2023-02-08T07:55:54.327Z,93558.47
2023-02-08T07:58:27.812Z,93565.72
2023-02-08T08:01:06.916Z,93566.16
2023-02-08T08:03:45.018Z,93565.72
2023-02-08T08:06:17.968Z,93567.59
2023-02-08T08:08:50.741Z,93556.63
2023-02-08T08:11:23.493Z,93564.56
2023-02-08T08:13:56.508Z,93570.66
2023-02-08T08:16:29.092Z,93576.72
2023-02-08T08:19:02.228Z,93566.41
2023-02-08T08:21:34.656Z,93558.38
2023-02-08T08:24:07.111Z,93564.41
2023-02-08T08:26:39.549Z,93565.06
2023-02-08T08:29:13.586Z,93566.22
2023-02-08T08:31:46.021Z,93569.44
2023-02-08T08:34:18.446Z,93571.06
2023-02-08T08:36:50.901Z,93561.06
2023-02-08T08:39:23.755Z,93551.69
2023-02-08T08:41:57.674Z,93558.84
2023-02-08T08:44:30.932Z,93570.09
2023-02-08T08:47:03.570Z,93571.84
2023-02-08T08:49:35.983Z,93570.59
2023-02-08T08:52:09.153Z,93575.50
2023-02-08T08:54:41.706Z,93570.75
2023-02-08T08:57:14.190Z,93574.09
2023-02-08T08:59:47.155Z,93579.97
2023-02-08T09:02:19.601Z,93577.44
2023-02-08T09:04:51.980Z,93576.78
2023-02-08T09:07:24.379Z,93590.94
2023-02-08T09:09:56.773Z,93592.22
2023-02-08T09:12:29.291Z,93594.28
2023-02-08T09:15:02.784Z,93596.81
2023-02-08T09:17:35.202Z,93596.00
2023-02-08T09:20:08.300Z,93601.25
2023-02-08T09:22:40.716Z,93599.22
2023-02-08T09:25:13.283Z,93607.16
2023-02-08T09:27:45.944Z,93595.84
2023-02-08T09:30:18.954Z,93603.03
2023-02-08T09:32:51.354Z,93604.13
2023-02-08T09:35:23.787Z,93601.91
2023-02-08T09:37:57.407Z,93604.28
2023-02-08T09:40:37.958Z,93601.91
2023-02-08T09:43:18.317Z,93614.47
2023-02-08T09:46:00.388Z,93608.59
2023-02-08T09:48:35.947Z,93605.25
2023-02-08T09:51:21.251Z,93610.16
2023-02-08T09:53:58.417Z,93604.94
2023-02-08T09:56:35.572Z,93602.41
2023-02-08T09:59:16.138Z,93601.09
2023-02-08T10:01:51.617Z,93597.44
2023-02-08T10:04:35.682Z,93589.97
2023-02-08T10:07:10.722Z,93596.63
2023-02-08T10:09:43.254Z,93583.88
2023-02-08T10:12:24.801Z,93587.72
2023-02-08T10:15:14.070Z,93586.59
2023-02-08T10:18:13.827Z,93584.00
2023-02-08T10:20:57.739Z,93597.34
2023-02-08T10:23:47.637Z,93587.91
2023-02-08T10:26:32.076Z,93577.25
2023-02-08T10:29:34.563Z,93597.56
2023-02-08T10:32:27.575Z,93591.75
2023-02-08T10:35:04.950Z,93590.59
2023-02-08T10:37:41.005Z,93595.94
2023-02-08T10:40:23.979Z,93594.69
2023-02-08T10:43:05.424Z,93589.72
2023-02-08T10:45:45.820Z,93591.44
2023-02-08T10:48:31.268Z,93591.66
2023-02-08T10:51:05.221Z,93591.47
2023-02-08T10:53:37.596Z,93596.84
2023-02-08T10:56:31.896Z,93591.31
2023-02-08T10:59:13.483Z,93601.94
2023-02-08T11:01:47.856Z,93608.91
2023-02-08T11:04:20.686Z,93607.13
2023-02-08T11:06:54.241Z,93602.69
2023-02-08T11:09:28.847Z,93609.34
2023-02-08T11:12:02.191Z,93609.22
2023-02-08T11:14:46.592Z,93597.88
2023-02-08T11:17:26.097Z,93602.47
2023-02-08T11:19:59.473Z,93604.66
2023-02-08T11:22:34.152Z,93609.78
2023-02-08T11:25:07.437Z,93602.69
2023-02-08T11:27:47.930Z,93586.63
2023-02-08T11:30:23.858Z,93595.41
2023-02-08T11:33:23.238Z,93598.13
2023-02-08T11:36:09.206Z,93583.00
2023-02-08T11:38:42.934Z,93590.63
2023-02-08T11:41:18.432Z,93600.56
2023-02-08T11:44:03.309Z,93602.91
2023-02-08T11:46:38.871Z,93602.16
2023-02-08T11:49:21.658Z,93593.38
2023-02-08T11:51:54.904Z,93601.06
2023-02-08T11:54:38.183Z,93598.41
2023-02-08T11:57:14.649Z,93602.03
2023-02-08T11:59:48.227Z,93602.25
2023-02-08T12:02:34.529Z,93601.19
2023-02-08T12:05:13.206Z,93604.88
2023-02-08T12:08:03.162Z,93611.28
2023-02-08T12:11:02.005Z,93602.47
2023-02-08T12:14:08.601Z,93601.41
2023-02-08T12:16:59.091Z,93601.56
2023-02-08T12:19:58.801Z,93602.09
2023-02-08T12:22:31.729Z,93604.38
2023-02-08T12:25:20.878Z,93599.88
2023-02-08T12:28:03.174Z,93599.03
2023-02-08T12:30:43.430Z,93600.00
2023-02-08T12:33:32.914Z,93593.06
2023-02-08T12:36:26.873Z,93592.72
2023-02-08T12:39:42.829Z,93601.19
2023-02-08T12:42:33.454Z,93608.91
2023-02-08T12:45:43.912Z,93602.72
2023-02-08T12:48:31.422Z,93606.28
2023-02-08T12:51:12.513Z,93603.13
2023-02-08T12:53:51.216Z,93605.94
2023-02-08T12:56:27.556Z,93611.72
2023-02-08T12:59:13.642Z,93622.16
2023-02-08T13:01:53.173Z,93622.56
2023-02-08T13:04:32.379Z,93625.34
2023-02-08T13:07:12.927Z,93624.44
2023-02-08T13:09:51.847Z,93622.47
2023-02-08T13:12:28.888Z,93628.84
2023-02-08T13:15:11.866Z,93625.97
2023-02-08T13:17:53.317Z,93626.38
2023-02-08T13:20:38.222Z,93634.31
2023-02-08T13:23:18.110Z,93637.31
2023-02-08T13:25:54.531Z,93634.81
2023-02-08T13:28:27.889Z,93641.13
2023-02-08T13:31:05.617Z,93639.28
2023-02-08T13:33:59.220Z,93638.75
2023-02-08T13:36:36.507Z,93614.88
2023-02-08T13:39:26.512Z,93633.91
2023-02-08T13:42:00.021Z,93642.47
2023-02-08T13:44:37.024Z,93642.66
2023-02-08T13:47:24.525Z,93624.75
2023-02-08T13:50:00.168Z,93635.84
2023-02-08T13:52:56.571Z,93640.53
2023-02-08T13:55:54.664Z,93634.00
2023-02-08T13:59:00.408Z,93642.09
2023-02-08T14:01:34.754Z,93644.78
2023-02-08T14:04:31.141Z,93621.88
2023-02-08T14:07:23.241Z,93644.16
2023-02-08T14:10:07.368Z,93640.06
2023-02-08T14:12:45.779Z,93642.53
2023-02-08T14:15:33.801Z,93648.22
2023-02-08T14:18:22.846Z,93653.66
2023-02-08T14:21:02.752Z,93653.88
2023-02-08T14:23:40.190Z,93655.66
2023-02-08T14:26:23.362Z,93655.72
2023-02-08T14:28:58.276Z,93656.31
2023-02-08T14:31:40.437Z,93657.69
2023-02-08T14:34:33.096Z,93657.44
2023-02-08T14:37:27.862Z,93663.09
2023-02-08T14:40:32.580Z,93662.22
2023-02-08T14:43:28.781Z,93659.72
2023-02-08T14:46:38.371Z,93659.56
2023-02-08T14:49:11.410Z,93658.06
2023-02-08T14:51:49.964Z,93663.25
2023-02-08T14:54:32.361Z,93665.09
2023-02-08T14:57:20.639Z,93651.50
2023-02-08T14:59:53.525Z,93668.47
2023-02-08T15:02:30.645Z,93667.75
2023-02-08T15:05:09.990Z,93669.91
2023-02-08T15:07:48.988Z,93670.94
2023-02-08T15:10:23.292Z,93681.75
2023-02-08T15:13:00.074Z,93680.78
2023-02-08T15:15:36.046Z,93672.78
2023-02-08T15:18:18.971Z,93677.78
2023-02-08T15:21:02.617Z,93675.81
2023-02-08T15:23:35.032Z,93675.00
2023-02-08T15:26:21.286Z,93674.06
2023-02-08T15:28:54.708Z,93668.47
2023-02-08T15:31:33.498Z,93676.31
2023-02-08T15:34:05.948Z,93681.47
2023-02-08T15:36:39.232Z,93682.63
2023-02-08T15:39:24.751Z,93674.38
2023-02-08T15:41:58.678Z,93674.84
2023-02-08T15:44:34.236Z,93666.78
2023-02-08T15:47:14.917Z,93672.34
2023-02-08T15:49:50.162Z,93677.13
2023-02-08T15:52:24.550Z,93677.44
2023-02-08T15:54:57.266Z,93654.84
2023-02-08T15:57:38.525Z,93677.28
2023-02-08T16:00:17.489Z,93678.22
2023-02-08T16:02:53.919Z,93686.97
2023-02-08T16:05:28.072Z,93685.41
2023-02-08T16:08:02.272Z,93682.06
2023-02-08T16:10:41.147Z,93684.13
2023-02-08T16:13:18.053Z,93687.13
2023-02-08T16:15:58.019Z,93683.97
2023-02-08T16:18:45.305Z,93684.44
2023-02-08T16:21:21.451Z,93688.75
2023-02-08T16:23:56.232Z,93689.22
2023-02-08T16:26:32.548Z,93691.28
2023-02-08T16:29:06.925Z,93686.50
2023-02-08T16:31:40.252Z,93688.41
2023-02-08T16:34:17.071Z,93677.91
2023-02-08T16:36:51.665Z,93686.47
2023-02-08T16:39:51.714Z,93690.31
2023-02-08T16:42:29.936Z,93692.31
2023-02-08T16:45:17.669Z,93686.75
2023-02-08T16:47:53.469Z,93685.31
2023-02-08T16:50:27.876Z,93686.75
2023-02-08T16:53:02.773Z,93677.97
2023-02-08T16:55:37.500Z,93686.19
2023-02-08T16:58:14.368Z,93678.56
2023-02-08T17:00:46.923Z,93680.31
2023-02-08T17:03:20.269Z,93688.69
2023-02-08T17:05:52.841Z,93684.28
2023-02-08T17:08:26.516Z,93686.91
2023-02-08T17:10:59.188Z,93690.16
2023-02-08T17:13:31.787Z,93682.34
2023-02-08T17:16:04.741Z,93678.47
2023-02-08T17:18:37.983Z,93681.75
2023-02-08T17:21:10.398Z,93676.06
2023-02-08T17:23:43.564Z,93685.94
2023-02-08T17:26:18.471Z,93678.34
2023-02-08T17:28:51.206Z,93682.97
2023-02-08T17:31:24.847Z,93669.44
2023-02-08T17:34:25.462Z,93680.53
2023-02-08T17:36:57.830Z,93675.88
2023-02-08T17:39:30.292Z,93682.31
2023-02-08T17:42:02.733Z,93687.69
2023-02-08T17:44:35.206Z,93683.63
2023-02-08T17:47:07.574Z,93692.19
2023-02-08T17:49:40.665Z,93693.94
2023-02-08T17:52:13.140Z,93694.22
2023-02-08T17:54:45.532Z,93700.75
2023-02-08T17:59:56.836Z,93693.81
2023-02-08T18:02:29.247Z,93695.81
2023-02-08T18:05:02.704Z,93701.19
2023-02-08T18:07:35.161Z,93705.81
2023-02-08T18:10:08.852Z,93705.66
2023-02-08T18:12:42.183Z,93706.69
2023-02-08T18:15:16.682Z,93709.94
2023-02-08T18:17:49.948Z,93701.75
2023-02-08T18:20:22.999Z,93700.75
2023-02-08T18:22:55.334Z,93697.91
2023-02-08T18:25:28.179Z,93704.56
2023-02-08T18:28:00.949Z,93697.47
2023-02-08T18:30:33.353Z,93694.44
2023-02-08T18:33:05.838Z,93696.28
2023-02-08T18:35:38.950Z,93702.31
2023-02-08T18:38:11.276Z,93698.81
2023-02-08T18:40:43.860Z,93699.97
2023-02-08T18:43:16.732Z,93704.13
2023-02-08T18:45:59.707Z,93693.31
2023-02-08T18:48:32.754Z,93707.56
2023-02-08T18:51:07.780Z,93703.56
2023-02-08T18:53:42.003Z,93698.81
2023-02-08T18:56:14.699Z,93693.38
2023-02-08T18:58:47.507Z,93696.72
2023-02-08T19:01:22.436Z,93694.56
2023-02-08T19:03:55.369Z,93680.44
2023-02-08T19:06:29.448Z,93707.13
2023-02-08T19:09:04.024Z,93703.13
2023-02-08T19:11:38.099Z,93703.50
2023-02-08T19:14:13.061Z,93708.88
2023-02-08T19:16:50.913Z,93711.59
2023-02-08T19:19:23.251Z,93709.88
2023-02-08T19:21:56.375Z,93713.06
2023-02-08T19:24:28.823Z,93713.41
2023-02-08T19:27:01.570Z,93712.59
2023-02-08T19:29:34.116Z,93723.59
2023-02-08T19:32:07.579Z,93723.59
2023-02-08T19:34:39.986Z,93727.50
2023-02-08T19:37:13.052Z,93725.19
2023-02-08T19:39:45.505Z,93723.25
2023-02-08T19:42:18.290Z,93732.94
2023-02-08T19:44:50.671Z,93723.22
2023-02-08T19:47:32.279Z,93728.41
2023-02-08T19:50:11.504Z,93729.09
2023-02-08T19:52:44.580Z,93722.41
2023-02-08T19:55:17.110Z,93719.22
2023-02-08T19:57:49.474Z,93722.97
2023-02-08T20:00:24.312Z,93715.91
2023-02-08T20:02:57.048Z,93716.28
2023-02-08T20:05:29.443Z,93715.19
2023-02-08T20:08:02.702Z,93717.13
2023-02-08T20:10:37.424Z,93725.50
2023-02-08T20:13:10.719Z,93720.69
2023-02-08T20:15:44.347Z,93723.88
2023-02-08T20:18:17.498Z,93713.94
2023-02-08T20:20:59.909Z,93722.09
2023-02-08T20:23:34.457Z,93711.50
2023-02-08T20:26:10.599Z,93716.25
2023-02-08T20:28:46.450Z,93711.06
2023-02-08T20:31:21.553Z,93720.03
2023-02-08T20:33:56.811Z,93715.50
2023-02-08T20:36:31.837Z,93714.19
2023-02-08T20:39:05.125Z,93710.19
2023-02-08T20:41:37.771Z,93710.97
2023-02-08T20:44:11.333Z,93706.84
2023-02-08T20:46:44.175Z,93712.31
2023-02-08T20:49:21.393Z,93708.81
2023-02-08T20:51:54.305Z,93702.44
2023-02-08T20:54:27.790Z,93710.16
2023-02-08T20:57:00.275Z,93716.00
2023-02-08T20:59:32.864Z,93708.16
2023-02-08T21:02:05.448Z,93714.66
2023-02-08T21:04:38.135Z,93713.72
2023-02-08T21:07:10.679Z,93711.84
2023-02-08T21:09:44.640Z,93714.66
2023-02-08T21:12:17.328Z,93711.06
2023-02-08T21:14:50.213Z,93718.66
2023-02-08T21:17:22.709Z,93713.38
2023-02-08T21:19:55.237Z,93718.16
2023-02-08T21:22:27.821Z,93713.50
2023-02-08T21:25:01.571Z,93704.75
2023-02-08T21:27:34.192Z,93703.13
2023-02-08T21:30:07.485Z,93714.03
2023-02-08T21:32:41.113Z,93723.38
2023-02-08T21:35:13.827Z,93720.66
2023-02-08T21:37:46.268Z,93726.81
2023-02-08T21:40:19.472Z,93718.94
2023-02-08T21:42:52.060Z,93724.94
2023-02-08T21:45:24.606Z,93726.53
2023-02-08T21:47:57.124Z,93733.75
2023-02-08T21:50:47.754Z,93727.63
2023-02-08T21:53:38.094Z,93726.28
2023-02-08T21:56:11.318Z,93731.44
2023-02-08T21:58:43.800Z,93736.31
2023-02-08T22:01:16.365Z,93743.75
2023-02-08T22:03:48.962Z,93740.34
2023-02-08T22:06:21.568Z,93741.63
2023-02-08T22:08:54.092Z,93744.03
2023-02-08T22:11:27.192Z,93738.91
2023-02-08T22:14:00.439Z,93744.22
2023-02-08T22:16:32.924Z,93743.34
2023-02-08T22:19:07.156Z,93744.31
2023-02-08T22:21:39.705Z,93744.44
2023-02-08T22:24:12.174Z,93747.84
2023-02-08T22:26:45.317Z,93749.19
2023-02-08T22:29:17.755Z,93746.28
2023-02-08T22:31:50.281Z,93745.56
2023-02-08T22:34:23.565Z,93756.06
2023-02-08T22:36:56.024Z,93753.53
2023-02-08T22:39:28.474Z,93750.63
2023-02-08T22:42:02.635Z,93754.63
2023-02-08T22:44:35.425Z,93751.94
2023-02-08T22:47:09.322Z,93753.03
2023-02-08T22:49:41.935Z,93753.91
2023-02-08T22:52:14.752Z,93756.59
2023-02-08T22:54:47.334Z,93757.53
2023-02-08T22:57:20.460Z,93741.25
2023-02-08T22:59:53.011Z,93750.19
2023-02-08T23:02:25.586Z,93749.19
2023-02-08T23:04:58.003Z,93753.84
2023-02-08T23:07:30.672Z,93746.91
2023-02-08T23:10:03.202Z,93743.34
2023-02-08T23:12:36.319Z,93751.75
2023-02-08T23:15:10.364Z,93754.34
2023-02-08T23:17:42.796Z,93750.47
2023-02-08T23:20:15.229Z,93743.97
2023-02-08T23:22:47.677Z,93749.59
2023-02-08T23:25:20.385Z,93740.56
2023-02-08T23:27:53.518Z,93748.66
2023-02-08T23:30:25.965Z,93736.00
2023-02-08T23:32:58.418Z,93735.44
2023-02-08T23:35:30.968Z,93733.56
2023-02-08T23:38:03.345Z,93729.47
2023-02-08T23:40:35.813Z,93731.81
2023-02-08T23:43:08.882Z,93728.66
2023-02-08T23:45:41.274Z,93730.66
2023-02-08T23:48:13.659Z,93728.84
2023-02-08T23:50:46.428Z,93736.56
2023-02-08T23:53:19.389Z,93742.44
2023-02-08T23:56:02.661Z,93739.28
2023-02-08T23:58:36.461Z,93736.66
